Time;durP1;ratioP1;P1;durP2;ratioP2;P2;SDS_P1;SDS_P2;PMS_P1;PMS_P2;Temp;Humidity;BMP_temperature;BMP_pressure;BME280_temperature;BME280_humidity;BME280_pressure;Samples;Min_cycle;Max_cycle;Signal;HPM_P1;HPM_P2
2021/03/12 00:02:24;;;;;;;0.68;0.10;;;21.30;37.00;;;;;;5036578;28;20029;-44
2021/03/12 00:04:50;;;;;;;0.70;0.10;;;21.30;37.00;;;;;;5029097;28;20095;-43
2021/03/12 00:07:16;;;;;;;0.73;0.10;;;21.30;37.00;;;;;;5032725;28;20163;-44
2021/03/12 00:09:42;;;;;;;0.25;0.03;;;21.30;37.20;;;;;;5032825;28;20125;-43
2021/03/12 00:12:08;;;;;;;0.32;0.10;;;21.20;36.90;;;;;;5036123;28;20029;-44
2021/03/12 00:14:34;;;;;;;1.45;0.20;;;21.20;36.90;;;;;;5033315;28;20018;-45
2021/03/12 00:17:00;;;;;;;3.17;0.20;;;21.20;36.90;;;;;;5033272;28;20116;-43
2021/03/12 00:19:25;;;;;;;0.52;0.22;;;21.20;37.00;;;;;;5033002;28;20109;-44
2021/03/12 00:21:51;;;;;;;3.72;0.10;;;21.20;37.00;;;;;;5039168;28;20041;-42
2021/03/12 00:24:17;;;;;;;1.00;0.10;;;21.10;36.90;;;;;;5032800;28;20033;-44
2021/03/12 00:26:43;;;;;;;0.90;0.28;;;21.10;36.90;;;;;;5033170;28;20103;-42
2021/03/12 00:29:08;;;;;;;0.45;0.10;;;21.10;36.90;;;;;;5033065;28;20084;-44
2021/03/12 00:31:34;;;;;;;1.67;0.10;;;21.10;36.90;;;;;;5033744;28;20041;-42
2021/03/12 00:33:59;;;;;;;1.40;0.10;;;21.10;36.80;;;;;;5033375;28;20041;-44
2021/03/12 00:36:25;;;;;;;1.02;0.10;;;21.00;36.90;;;;;;5032609;28;20079;-45
2021/03/12 00:38:51;;;;;;;2.25;0.10;;;21.00;36.90;;;;;;5051496;28;20060;-44
2021/03/12 00:41:16;;;;;;;0.93;0.10;;;21.00;36.90;;;;;;5049925;28;20033;-46
2021/03/12 00:43:42;;;;;;;0.85;0.10;;;21.00;36.90;;;;;;5037748;28;20037;-44
2021/03/12 00:46:10;;;;;;;0.60;0.15;;;21.00;37.00;;;;;;5037633;28;20060;-43
2021/03/12 00:48:36;;;;;;;0.80;0.10;;;21.00;36.90;;;;;;5030888;28;20040;-45
2021/03/12 00:51:03;;;;;;;1.75;0.10;;;21.00;37.00;;;;;;5034492;28;20037;-44
2021/03/12 00:53:29;;;;;;;1.33;0.10;;;20.90;36.90;;;;;;5032313;28;20087;-42
2021/03/12 00:55:55;;;;;;;0.50;0.08;;;20.90;37.00;;;;;;5034311;28;20030;-43
2021/03/12 00:58:23;;;;;;;1.70;0.10;;;20.90;37.00;;;;;;5033389;28;20035;-44
2021/03/12 01:00:48;;;;;;;1.48;0.10;;;20.90;36.90;;;;;;5036486;28;20040;-44
2021/03/12 01:03:14;;;;;;;1.08;0.17;;;20.90;37.00;;;;;;5032603;28;20487;-45
2021/03/12 01:05:40;;;;;;;0.73;0.10;;;20.90;37.00;;;;;;5040078;28;20040;-43
2021/03/12 01:08:07;;;;;;;1.30;0.10;;;20.90;37.00;;;;;;5042718;28;20103;-44
2021/03/12 01:10:33;;;;;;;0.50;0.10;;;20.90;37.00;;;;;;5039954;28;20047;-42
2021/03/12 01:12:59;;;;;;;0.77;0.10;;;20.80;36.90;;;;;;5035450;28;20067;-44
2021/03/12 01:15:26;;;;;;;4.63;0.20;;;20.80;37.00;;;;;;5027816;28;20428;-45
2021/03/12 01:17:52;;;;;;;0.90;0.10;;;20.80;36.90;;;;;;5031964;28;20034;-45
2021/03/12 01:20:27;;;;;;;1.20;0.10;;;20.80;36.90;;;;;;5034324;28;20021;-44
2021/03/12 01:22:57;;;;;;;0.60;0.17;;;20.80;36.90;;;;;;5034880;28;20065;-44
2021/03/12 01:25:27;;;;;;;0.75;0.00;;;20.80;36.90;;;;;;5040099;28;20108;-44
2021/03/12 01:27:52;;;;;;;0.38;0.00;;;20.80;37.00;;;;;;5031641;28;20017;-44
2021/03/12 01:30:25;;;;;;;0.93;0.10;;;20.70;36.80;;;;;;5031963;28;20035;-44
2021/03/12 01:32:51;;;;;;;0.38;0.00;;;20.70;36.80;;;;;;5031853;28;20037;-43
2021/03/12 01:35:17;;;;;;;0.50;0.05;;;20.70;36.90;;;;;;5035393;28;20060;-44
2021/03/12 01:37:43;;;;;;;0.32;0.10;;;20.70;36.90;;;;;;5042998;28;20029;-45
2021/03/12 01:40:13;;;;;;;0.40;0.10;;;20.70;37.00;;;;;;5024370;28;20652;-43
2021/03/12 01:42:39;;;;;;;0.47;0.10;;;20.70;37.00;;;;;;5028355;28;20029;-45
2021/03/12 01:45:26;;;;;;;0.20;0.00;;;20.60;37.00;;;;;;5039037;28;20048;-42
2021/03/12 01:47:52;;;;;;;0.73;0.10;;;20.60;37.00;;;;;;5024108;28;20049;-43
2021/03/12 01:50:19;;;;;;;0.40;0.20;;;20.60;37.10;;;;;;5029049;28;20086;-42
2021/03/12 01:52:46;;;;;;;0.57;0.10;;;20.60;37.10;;;;;;5033078;28;20059;-45
2021/03/12 01:55:19;;;;;;;0.77;0.20;;;20.60;37.10;;;;;;5035066;28;20024;-42
2021/03/12 01:57:44;;;;;;;2.08;0.05;;;20.60;37.00;;;;;;5046008;28;20037;-44
2021/03/12 02:00:11;;;;;;;0.65;0.03;;;20.60;37.00;;;;;;5030945;28;20080;-45
2021/03/12 02:02:39;;;;;;;0.35;0.00;;;20.60;37.00;;;;;;5046450;28;20063;-41
2021/03/12 02:05:05;;;;;;;0.75;0.10;;;20.50;37.00;;;;;;5043563;28;20105;-45
2021/03/12 02:07:31;;;;;;;0.95;0.10;;;20.50;37.10;;;;;;5042306;28;20029;-44
2021/03/12 02:09:56;;;;;;;0.30;0.00;;;20.50;37.00;;;;;;5045806;28;20063;-45
2021/03/12 02:12:32;;;;;;;0.70;0.00;;;20.50;37.10;;;;;;5030955;28;20090;-44
2021/03/12 02:15:03;;;;;;;0.90;0.10;;;20.50;37.00;;;;;;5033211;28;20378;-44
2021/03/12 02:17:37;;;;;;;1.00;0.10;;;20.50;37.00;;;;;;5031351;28;20028;-45
2021/03/12 02:20:03;;;;;;;0.98;0.10;;;20.50;37.10;;;;;;5026155;28;20041;-45
2021/03/12 02:22:30;;;;;;;0.50;0.10;;;20.50;37.00;;;;;;5030566;28;20053;-45
2021/03/12 02:25:05;;;;;;;0.40;0.00;;;20.50;37.10;;;;;;5030741;28;20029;-44
2021/03/12 02:27:32;;;;;;;1.50;0.10;;;20.50;37.00;;;;;;5038746;28;20577;-44
2021/03/12 02:30:00;;;;;;;0.38;0.10;;;20.40;37.10;;;;;;5032073;28;20037;-45
2021/03/12 02:32:33;;;;;;;1.00;0.10;;;20.50;37.20;;;;;;5031382;28;20105;-43
2021/03/12 02:35:02;;;;;;;0.60;0.10;;;20.50;37.10;;;;;;5045137;28;20037;-41
2021/03/12 02:37:29;;;;;;;0.95;0.20;;;20.40;37.00;;;;;;5035008;28;20160;-45
2021/03/12 02:39:58;;;;;;;0.25;0.10;;;20.40;37.00;;;;;;5032200;28;20037;-43
2021/03/12 02:42:24;;;;;;;0.45;0.00;;;20.40;37.00;;;;;;5039578;28;20034;-43
2021/03/12 02:44:52;;;;;;;0.43;0.10;;;20.40;37.50;;;;;;5029475;28;20014;-43
2021/03/12 02:47:25;;;;;;;1.13;0.03;;;20.40;36.90;;;;;;5038653;28;20036;-46
2021/03/12 02:49:51;;;;;;;0.25;0.10;;;20.40;36.90;;;;;;5038914;28;20025;-45
2021/03/12 02:52:18;;;;;;;0.63;0.10;;;20.40;36.90;;;;;;5033961;28;20029;-44
2021/03/12 02:54:45;;;;;;;0.50;0.00;;;20.40;37.00;;;;;;5099729;22;20556;-82
2021/03/12 02:57:13;;;;;;;0.70;0.10;;;20.40;37.00;;;;;;5020688;28;20104;-82
2021/03/12 02:59:40;;;;;;;0.50;0.10;;;20.40;37.00;;;;;;5026588;28;20031;-82
2021/03/12 03:02:09;;;;;;;0.50;0.10;;;20.40;37.50;;;;;;5040749;28;20021;-81
2021/03/12 03:04:35;;;;;;;1.27;0.10;;;20.40;37.00;;;;;;5055930;28;20028;-84
2021/03/12 03:07:03;;;;;;;0.85;0.00;;;20.40;36.90;;;;;;5040101;28;20025;-83
2021/03/12 03:09:30;;;;;;;0.17;0.00;;;20.40;37.00;;;;;;5039820;28;20025;-83
2021/03/12 03:11:56;;;;;;;0.60;0.10;;;20.40;37.50;;;;;;5038599;28;20025;-83
2021/03/12 03:14:22;;;;;;;1.17;0.10;;;20.40;37.00;;;;;;5044950;28;20543;-83
2021/03/12 03:16:48;;;;;;;0.82;0.10;;;20.30;37.00;;;;;;5050656;28;20021;-83
2021/03/12 03:19:15;;;;;;;0.90;0.10;;;20.30;37.00;;;;;;5051694;28;20032;-83
2021/03/12 03:21:45;;;;;;;0.60;0.10;;;20.30;36.90;;;;;;5055757;28;20025;-82
2021/03/12 03:24:11;;;;;;;0.45;0.05;;;20.30;36.70;;;;;;5034909;28;20396;-83
2021/03/12 03:26:37;;;;;;;1.00;0.10;;;20.30;36.80;;;;;;5038693;28;20063;-83
2021/03/12 03:29:04;;;;;;;0.90;0.10;;;20.30;36.80;;;;;;5054355;28;20040;-83
2021/03/12 03:31:30;;;;;;;0.35;0.10;;;20.30;36.80;;;;;;5061674;28;20029;-83
2021/03/12 03:33:56;;;;;;;0.68;0.10;;;20.30;36.90;;;;;;5039618;28;20044;-83
2021/03/12 03:36:22;;;;;;;0.30;0.08;;;20.30;36.80;;;;;;5049342;28;20037;-83
2021/03/12 03:38:47;;;;;;;0.70;0.05;;;20.30;36.90;;;;;;5057285;28;20199;-82
2021/03/12 03:41:16;;;;;;;0.43;0.10;;;20.30;36.80;;;;;;5048134;28;20053;-82
2021/03/12 03:43:45;;;;;;;2.00;0.20;;;20.30;36.80;;;;;;5048701;28;20033;-83
2021/03/12 03:46:12;;;;;;;1.55;0.10;;;20.30;36.80;;;;;;5024046;28;20034;-82
2021/03/12 03:48:39;;;;;;;0.45;0.10;;;20.20;36.70;;;;;;5051648;28;20041;-82
2021/03/12 03:51:11;;;;;;;0.30;0.00;;;20.20;36.90;;;;;;5054600;28;20349;-82
2021/03/12 03:53:38;;;;;;;0.52;0.10;;;20.20;36.90;;;;;;5054778;28;20086;-82
2021/03/12 03:56:05;;;;;;;0.50;0.10;;;20.20;36.80;;;;;;5054030;28;20048;-82
2021/03/12 03:58:34;;;;;;;1.65;0.10;;;20.20;36.70;;;;;;5038713;28;20389;-82
2021/03/12 04:01:00;;;;;;;0.45;0.10;;;20.20;36.70;;;;;;5054686;28;20044;-82
2021/03/12 04:03:26;;;;;;;1.13;0.10;;;20.20;36.70;;;;;;5052980;28;20037;-83
2021/03/12 04:05:57;;;;;;;0.68;0.10;;;20.20;36.60;;;;;;5055964;28;20036;-82
2021/03/12 04:08:24;;;;;;;0.25;0.00;;;20.20;36.70;;;;;;5056139;28;20481;-82
2021/03/12 04:10:51;;;;;;;0.40;0.00;;;20.20;36.70;;;;;;5039899;28;20025;-82
2021/03/12 04:13:18;;;;;;;0.90;0.10;;;20.20;36.60;;;;;;5055273;28;20025;-83
2021/03/12 04:15:44;;;;;;;0.45;0.00;;;20.20;36.70;;;;;;5036180;28;20021;-83
2021/03/12 04:18:11;;;;;;;1.98;0.10;;;20.20;36.60;;;;;;5040641;28;20025;-83
2021/03/12 04:20:37;;;;;;;0.65;0.10;;;20.20;36.60;;;;;;5040651;28;20024;-82
2021/03/12 04:23:04;;;;;;;1.08;0.10;;;20.20;36.60;;;;;;5058872;28;20033;-82
2021/03/12 04:25:32;;;;;;;0.77;0.10;;;20.20;36.60;;;;;;5056908;28;20036;-82
2021/03/12 04:27:57;;;;;;;0.20;0.00;;;20.20;36.70;;;;;;5057548;28;20025;-82
2021/03/12 04:30:24;;;;;;;0.32;0.10;;;20.10;36.60;;;;;;5062364;28;20036;-82
2021/03/12 04:32:50;;;;;;;0.45;0.10;;;20.10;36.60;;;;;;5076332;28;20017;-82
2021/03/12 04:35:15;;;;;;;0.40;0.10;;;20.10;36.60;;;;;;5062560;28;20048;-81
2021/03/12 04:37:42;;;;;;;0.95;0.03;;;20.10;36.60;;;;;;5068033;28;20025;-80
2021/03/12 04:40:09;;;;;;;0.10;0.00;;;20.10;36.50;;;;;;5077262;28;20029;-79
2021/03/12 04:42:37;;;;;;;0.57;0.10;;;20.10;36.60;;;;;;5073771;28;20032;-81
2021/03/12 04:45:07;;;;;;;0.95;0.10;;;20.10;36.70;;;;;;5070956;28;20088;-81
2021/03/12 04:47:34;;;;;;;0.60;0.10;;;20.10;36.60;;;;;;5054865;28;20017;-81
2021/03/12 04:50:01;;;;;;;0.45;0.10;;;20.10;36.60;;;;;;5061624;28;20027;-82
2021/03/12 04:52:26;;;;;;;0.77;0.10;;;20.10;36.60;;;;;;5052544;28;20021;-83
2021/03/12 04:54:53;;;;;;;0.30;0.00;;;20.10;36.60;;;;;;5060500;28;20029;-83
2021/03/12 04:57:19;;;;;;;0.47;0.10;;;20.10;36.60;;;;;;5060374;28;20227;-82
2021/03/12 04:59:45;;;;;;;0.40;0.10;;;20.00;36.60;;;;;;5060598;28;20033;-82
2021/03/12 05:02:11;;;;;;;0.77;0.00;;;20.10;36.70;;;;;;5057931;28;20039;-83
2021/03/12 05:04:39;;;;;;;0.57;0.10;;;20.00;36.60;;;;;;5058980;28;20385;-83
2021/03/12 05:07:05;;;;;;;0.82;0.10;;;20.00;36.60;;;;;;5036681;28;20037;-82
2021/03/12 05:09:30;;;;;;;1.58;0.17;;;20.10;36.60;;;;;;5059419;28;20542;-83
2021/03/12 05:11:56;;;;;;;0.70;0.10;;;20.00;36.50;;;;;;5057285;28;20337;-83
2021/03/12 05:14:22;;;;;;;1.42;0.15;;;20.00;36.50;;;;;;5054341;28;20067;-82
2021/03/12 05:16:47;;;;;;;0.57;0.10;;;20.00;36.50;;;;;;5035089;28;20031;-82
2021/03/12 05:19:13;;;;;;;0.63;0.00;;;20.00;36.60;;;;;;5038251;28;20493;-82
2021/03/12 05:21:38;;;;;;;1.05;0.10;;;20.00;36.60;;;;;;5036865;28;20032;-82
2021/03/12 05:24:04;;;;;;;0.70;0.10;;;20.00;36.60;;;;;;5054123;28;20033;-82
2021/03/12 05:26:30;;;;;;;1.25;0.10;;;20.00;36.50;;;;;;5054370;28;20041;-83
2021/03/12 05:28:57;;;;;;;0.43;0.10;;;20.00;36.50;;;;;;5055368;28;20397;-82
2021/03/12 05:31:31;;;;;;;0.80;0.15;;;20.00;36.40;;;;;;5053045;28;20033;-83
2021/03/12 05:33:57;;;;;;;0.68;0.10;;;20.00;36.50;;;;;;5054093;28;20021;-82
2021/03/12 05:36:23;;;;;;;0.95;0.10;;;20.00;36.50;;;;;;5036611;28;20040;-83
2021/03/12 05:38:49;;;;;;;0.45;0.10;;;20.00;36.50;;;;;;5037206;28;20086;-83
2021/03/12 05:41:17;;;;;;;0.40;0.10;;;20.00;36.50;;;;;;5035561;28;20032;-82
2021/03/12 05:43:43;;;;;;;1.65;0.10;;;19.90;36.40;;;;;;5053993;28;20051;-82
2021/03/12 05:46:10;;;;;;;0.20;0.10;;;20.00;36.50;;;;;;5052723;28;20033;-83
2021/03/12 05:48:35;;;;;;;0.65;0.20;;;19.90;36.50;;;;;;5042257;28;20063;-83
2021/03/12 05:51:01;;;;;;;1.90;0.10;;;19.90;36.50;;;;;;5053230;28;20029;-83
2021/03/12 05:53:28;;;;;;;0.90;0.10;;;20.00;36.60;;;;;;5052504;28;20051;-83
2021/03/12 05:55:57;;;;;;;1.85;0.10;;;19.90;36.50;;;;;;5036953;28;20119;-83
2021/03/12 05:58:23;;;;;;;0.93;0.10;;;19.90;36.50;;;;;;5035892;28;20035;-83
2021/03/12 06:00:49;;;;;;;0.55;0.10;;;19.90;36.50;;;;;;5055075;28;20040;-83
2021/03/12 06:03:14;;;;;;;0.57;0.10;;;19.90;36.50;;;;;;5034919;28;20029;-83
2021/03/12 06:05:43;;;;;;;0.25;0.03;;;19.90;36.60;;;;;;5028685;28;20025;-83
2021/03/12 06:08:09;;;;;;;0.52;0.10;;;19.90;36.50;;;;;;5043697;28;20056;-84
2021/03/12 06:10:34;;;;;;;0.85;0.10;;;19.90;36.60;;;;;;5020894;28;20032;-84
2021/03/12 06:13:01;;;;;;;1.27;0.20;;;19.90;37.10;;;;;;5048543;28;20036;-83
2021/03/12 06:15:36;;;;;;;0.85;0.10;;;19.90;36.60;;;;;;5053767;28;20661;-83
2021/03/12 06:18:23;;;;;;;0.50;0.10;;;19.90;36.60;;;;;;5029579;28;20500;-84
2021/03/12 06:20:48;;;;;;;0.40;0.10;;;19.90;36.60;;;;;;5056118;28;20124;-81
2021/03/12 06:23:37;;;;;;;1.08;0.10;;;19.90;36.60;;;;;;5051957;28;20071;-82
2021/03/12 06:26:03;;;;;;;1.05;0.10;;;19.90;36.60;;;;;;5053165;28;20037;-82
2021/03/12 06:28:30;;;;;;;0.30;0.10;;;19.80;36.50;;;;;;5034674;28;20039;-82
2021/03/12 06:30:56;;;;;;;0.20;0.10;;;19.80;36.80;;;;;;5047292;28;20033;-81
2021/03/12 06:33:32;;;;;;;0.40;0.10;;;19.90;36.90;;;;;;5054330;28;20090;-82
2021/03/12 06:36:00;;;;;;;0.25;0.00;;;20.00;36.70;;;;;;5053285;28;20056;-83
2021/03/12 06:38:26;;;;;;;0.55;0.00;;;20.10;36.60;;;;;;5048530;28;20124;-82
2021/03/12 06:40:52;;;;;;;0.20;0.08;;;20.20;36.50;;;;;;5056419;28;20064;-83
2021/03/12 06:43:19;;;;;;;0.25;0.00;;;20.30;36.50;;;;;;5040184;28;20029;-82
2021/03/12 06:45:45;;;;;;;2.35;0.10;;;20.40;36.40;;;;;;5036515;28;20079;-81
2021/03/12 06:48:17;;;;;;;1.65;0.00;;;20.50;36.30;;;;;;5056201;28;20119;-82
2021/03/12 06:50:50;;;;;;;2.92;0.10;;;20.50;36.60;;;;;;5054417;28;20025;-82
2021/03/12 06:53:20;;;;;;;1.38;0.00;;;20.60;36.60;;;;;;5056573;28;20025;-83
2021/03/12 06:55:46;;;;;;;0.45;0.00;;;20.60;36.50;;;;;;5037365;28;20033;-82
2021/03/12 06:58:11;;;;;;;0.43;0.10;;;20.70;36.40;;;;;;5054283;28;20029;-83
2021/03/12 07:00:37;;;;;;;1.70;0.10;;;20.70;36.40;;;;;;5056197;28;20028;-82
2021/03/12 07:03:17;;;;;;;0.45;0.13;;;20.80;36.30;;;;;;5065489;28;20128;-83
2021/03/12 07:05:54;;;;;;;0.20;0.00;;;20.80;36.20;;;;;;5038960;28;20029;-81
2021/03/12 07:08:48;;;;;;;1.85;0.20;;;20.90;36.20;;;;;;5073416;28;20079;-82
2021/03/12 07:11:16;;;;;;;0.75;0.08;;;20.90;36.10;;;;;;5037876;28;20098;-82
2021/03/12 07:13:42;;;;;;;0.40;0.00;;;21.00;36.10;;;;;;5036061;28;20045;-81
2021/03/12 07:16:08;;;;;;;1.00;0.20;;;21.00;36.10;;;;;;5037303;28;20024;-83
2021/03/12 07:18:33;;;;;;;0.57;0.00;;;21.00;36.00;;;;;;5051735;28;20086;-82
2021/03/12 07:20:59;;;;;;;0.57;0.10;;;21.00;36.00;;;;;;5047401;28;20033;-83
2021/03/12 07:23:28;;;;;;;0.20;0.00;;;21.00;36.10;;;;;;5047528;28;20025;-82
2021/03/12 07:25:55;;;;;;;0.60;0.08;;;21.00;36.10;;;;;;5036815;28;20021;-82
2021/03/12 07:28:23;;;;;;;0.43;0.10;;;21.10;36.10;;;;;;5054494;28;20035;-83
2021/03/12 07:30:50;;;;;;;1.02;0.10;;;21.00;36.10;;;;;;5049917;28;20112;-82
2021/03/12 07:33:20;;;;;;;2.15;0.10;;;21.00;36.20;;;;;;5044514;28;20476;-83
2021/03/12 07:35:46;;;;;;;0.93;0.05;;;21.00;36.20;;;;;;5036145;28;20017;-83
2021/03/12 07:38:14;;;;;;;0.88;0.10;;;21.00;36.30;;;;;;5045626;28;20045;-83
2021/03/12 07:40:40;;;;;;;0.60;0.10;;;20.90;36.30;;;;;;5053090;28;20029;-82
2021/03/12 07:43:08;;;;;;;0.82;0.10;;;20.90;36.40;;;;;;5036592;28;20485;-84
2021/03/12 07:45:37;;;;;;;0.35;0.10;;;20.90;36.50;;;;;;5055420;28;20068;-81
2021/03/12 07:48:03;;;;;;;0.95;0.20;;;21.00;36.50;;;;;;5048241;28;20471;-85
2021/03/12 07:50:36;;;;;;;0.88;0.10;;;20.90;36.40;;;;;;5036181;28;20030;-85
2021/03/12 07:53:02;;;;;;;2.50;0.08;;;20.90;36.70;;;;;;5035951;28;20052;-85
2021/03/12 07:55:37;;;;;;;1.20;0.10;;;20.80;36.70;;;;;;5050965;28;20093;-85
2021/03/12 07:58:04;;;;;;;0.75;0.10;;;20.80;36.80;;;;;;5031222;28;20087;-85
2021/03/12 08:00:30;;;;;;;0.63;0.10;;;20.80;36.80;;;;;;5053054;28;20024;-84
2021/03/12 08:03:01;;;;;;;1.00;0.10;;;20.80;36.80;;;;;;5052093;28;20028;-84
2021/03/12 08:05:36;;;;;;;2.13;0.10;;;20.70;36.80;;;;;;5054014;28;20493;-85
2021/03/12 08:08:03;;;;;;;0.90;0.10;;;20.70;36.80;;;;;;5031941;28;20027;-85
2021/03/12 08:10:29;;;;;;;2.97;0.15;;;20.70;36.80;;;;;;5048229;28;20027;-85
2021/03/12 08:12:55;;;;;;;0.70;0.13;;;20.70;36.80;;;;;;5054754;28;20033;-85
2021/03/12 08:15:33;;;;;;;0.93;0.10;;;20.70;36.80;;;;;;5053071;28;20060;-85
2021/03/12 08:17:59;;;;;;;0.10;0.00;;;20.70;36.90;;;;;;5033654;28;20033;-84
2021/03/12 08:20:37;;;;;;;0.60;0.10;;;20.70;36.80;;;;;;5036509;28;20103;-85
2021/03/12 08:23:04;;;;;;;1.27;0.10;;;20.70;36.90;;;;;;5064596;28;20063;-85
2021/03/12 08:25:35;;;;;;;0.40;0.10;;;20.70;36.90;;;;;;5050704;28;20427;-85
2021/03/12 08:28:02;;;;;;;;;;;20.70;36.90;;;;;;5036742;28;20036;-85
2021/03/12 08:30:27;;;;;;;0.65;0.00;;;20.70;36.90;;;;;;5052149;28;19908;-85
2021/03/12 08:32:54;;;;;;;0.80;0.10;;;20.70;36.80;;;;;;5052584;28;20035;-84
2021/03/12 08:35:36;;;;;;;0.93;0.10;;;20.70;36.80;;;;;;5052571;28;20043;-85
2021/03/12 08:38:28;;;;;;;1.65;0.22;;;20.70;36.80;;;;;;5047047;28;20026;-85
2021/03/12 08:40:59;;;;;;;2.40;0.20;;;20.70;36.80;;;;;;5031676;28;20033;-84
2021/03/12 08:43:28;;;;;;;0.50;0.10;;;20.70;36.80;;;;;;5035895;28;20032;-84
2021/03/12 08:45:59;;;;;;;1.75;0.20;;;20.70;36.80;;;;;;5036600;28;20041;-85
2021/03/12 08:48:26;;;;;;;0.55;0.20;;;20.70;36.90;;;;;;5037156;28;20392;-85
2021/03/12 08:51:06;;;;;;;2.15;0.10;;;20.70;36.90;;;;;;5049872;28;20278;-84
2021/03/12 08:53:34;;;;;;;1.58;0.10;;;20.60;36.80;;;;;;5048038;28;20067;-85
2021/03/12 08:56:00;;;;;;;0.82;0.15;;;20.60;36.90;;;;;;5051401;28;20021;-85
2021/03/12 08:58:31;;;;;;;0.57;0.10;;;20.70;36.90;;;;;;5033179;28;20039;-85
2021/03/12 09:00:59;;;;;;;0.65;0.10;;;20.60;36.90;;;;;;5057347;28;20090;-85
2021/03/12 09:03:30;;;;;;;1.50;0.10;;;20.60;36.90;;;;;;5051260;28;20099;-85
2021/03/12 09:06:02;;;;;;;1.13;0.10;;;20.60;37.00;;;;;;5048402;28;20096;-84
2021/03/12 09:08:29;;;;;;;0.38;0.08;;;20.60;37.00;;;;;;5049361;28;20171;-85
2021/03/12 09:10:55;;;;;;;0.63;0.17;;;20.70;37.10;;;;;;5035467;28;20024;-85
2021/03/12 09:13:27;;;;;;;0.70;0.10;;;20.70;37.40;;;;;;5050758;28;20036;-85
2021/03/12 09:15:53;;;;;;;0.85;0.20;;;20.80;37.50;;;;;;5032687;28;20505;-85
2021/03/12 09:18:20;;;;;;;0.70;0.20;;;20.90;37.80;;;;;;5031577;28;20500;-84
2021/03/12 09:20:54;;;;;;;1.02;0.10;;;21.00;37.80;;;;;;5049410;28;20769;-85
2021/03/12 09:23:33;;;;;;;2.65;0.28;;;21.00;37.80;;;;;;5050001;28;20029;-84
2021/03/12 09:25:58;;;;;;;2.13;0.30;;;21.10;37.50;;;;;;5034888;28;20044;-84
2021/03/12 09:28:29;;;;;;;4.03;0.45;;;21.10;37.50;;;;;;5050992;28;20420;-85
2021/03/12 09:30:56;;;;;;;1.73;0.32;;;21.20;37.50;;;;;;5023997;28;20388;-84
2021/03/12 09:33:43;;;;;;;1.83;0.30;;;21.20;37.50;;;;;;5044986;28;20021;-85
2021/03/12 09:36:27;;;;;;;2.22;0.43;;;21.20;37.50;;;;;;5036742;28;20558;-84
2021/03/12 09:38:56;;;;;;;2.58;0.30;;;21.20;37.50;;;;;;5045993;28;20163;-85
2021/03/12 09:41:24;;;;;;;1.70;0.32;;;21.20;37.60;;;;;;5051606;28;20055;-84
2021/03/12 09:44:10;;;;;;;5.03;0.63;;;21.20;37.50;;;;;;5050566;28;20031;-84
2021/03/12 09:46:43;;;;;;;1.23;0.28;;;21.20;37.90;;;;;;5030372;28;20113;-85
2021/03/12 09:49:25;;;;;;;2.00;0.52;;;21.20;37.30;;;;;;5042156;28;20393;-85
2021/03/12 09:51:58;;;;;;;1.67;0.38;;;21.20;37.30;;;;;;5040773;28;20021;-85
2021/03/12 09:54:25;;;;;;;1.85;0.45;;;21.20;37.30;;;;;;5047647;28;20036;-84
2021/03/12 09:56:53;;;;;;;2.92;0.57;;;21.20;37.40;;;;;;5045419;28;20025;-85
2021/03/12 09:59:20;;;;;;;4.38;0.60;;;21.20;37.30;;;;;;5050529;28;20378;-85
2021/03/12 10:01:48;;;;;;;2.45;0.50;;;21.30;37.20;;;;;;5032550;28;20689;-85
2021/03/12 10:04:37;;;;;;;2.38;0.60;;;21.40;37.20;;;;;;5044085;28;20489;-84
2021/03/12 10:07:10;;;;;;;2.65;0.82;;;21.40;37.10;;;;;;5048384;28;20033;-85
2021/03/12 10:09:40;;;;;;;2.03;0.65;;;21.40;37.00;;;;;;5034754;28;20020;-83
2021/03/12 10:12:24;;;;;;;5.15;0.77;;;21.40;37.10;;;;;;5046390;28;20037;-85
2021/03/12 10:14:52;;;;;;;4.57;0.60;;;21.40;37.10;;;;;;5045119;28;20795;-84
2021/03/12 10:17:22;;;;;;;2.53;0.85;;;21.40;37.10;;;;;;5052375;28;20017;-85
2021/03/12 10:19:53;;;;;;;3.42;0.68;;;21.30;37.10;;;;;;5044190;28;20026;-85
2021/03/12 10:22:23;;;;;;;3.55;0.75;;;21.30;37.10;;;;;;5051423;28;20036;-85
2021/03/12 10:25:00;;;;;;;1.08;0.20;;;21.30;37.10;;;;;;5052387;28;20140;-84
2021/03/12 10:27:32;;;;;;;3.13;0.50;;;21.30;37.10;;;;;;5051594;28;20090;-85
2021/03/12 10:29:57;;;;;;;3.22;0.30;;;21.30;37.20;;;;;;5033761;28;20060;-84
2021/03/12 10:32:23;;;;;;;1.27;0.20;;;21.30;37.20;;;;;;5052124;28;20025;-84
2021/03/12 10:34:55;;;;;;;2.97;0.47;;;21.30;37.20;;;;;;5051604;28;20040;-84
2021/03/12 10:37:23;;;;;;;2.58;0.32;;;21.30;37.20;;;;;;5035497;28;20025;-85
2021/03/12 10:39:51;;;;;;;3.40;0.90;;;21.20;37.10;;;;;;5045021;28;20095;-85
2021/03/12 10:42:28;;;;;;;3.95;0.60;;;21.20;37.10;;;;;;5052671;28;20055;-84
2021/03/12 10:45:03;;;;;;;1.95;0.43;;;21.30;37.30;;;;;;5034940;28;20029;-83
2021/03/12 10:47:29;;;;;;;1.70;0.47;;;21.20;37.30;;;;;;5028847;28;20030;-84
2021/03/12 10:49:55;;;;;;;3.55;0.60;;;21.20;37.30;;;;;;5024374;28;20040;-83
2021/03/12 10:52:31;;;;;;;2.38;0.32;;;21.20;37.30;;;;;;5036187;28;20241;-83
2021/03/12 10:55:07;;;;;;;1.15;0.35;;;21.20;37.30;;;;;;5051249;28;20037;-84
2021/03/12 10:57:42;;;;;;;1.65;0.30;;;21.20;37.30;;;;;;5067607;28;20021;-84
2021/03/12 11:00:22;;;;;;;1.35;0.30;;;21.10;37.30;;;;;;5033084;28;20032;-83
2021/03/12 11:02:49;;;;;;;2.83;0.30;;;21.10;37.60;;;;;;5045775;28;20476;-84
2021/03/12 11:05:17;;;;;;;2.45;0.47;;;21.00;37.60;;;;;;5023889;28;20029;-85
2021/03/12 11:07:46;;;;;;;1.80;0.60;;;21.00;37.60;;;;;;5048839;28;20026;-84
2021/03/12 11:10:14;;;;;;;2.03;0.30;;;21.00;37.80;;;;;;5049251;28;20029;-84
2021/03/12 11:12:48;;;;;;;3.22;0.40;;;21.00;37.80;;;;;;5048719;28;20044;-83
2021/03/12 11:15:17;;;;;;;1.27;0.10;;;20.90;37.80;;;;;;5050831;28;20057;-83
2021/03/12 11:17:47;;;;;;;1.77;0.30;;;20.90;38.50;;;;;;5050490;28;20025;-84
2021/03/12 11:20:19;;;;;;;2.03;0.30;;;21.00;37.90;;;;;;5052982;28;20075;-84
2021/03/12 11:22:45;;;;;;;1.35;0.52;;;21.00;38.00;;;;;;5037802;28;20027;-84
2021/03/12 11:25:11;;;;;;;0.93;0.30;;;20.90;38.00;;;;;;5055280;28;20025;-84
2021/03/12 11:27:37;;;;;;;2.78;0.30;;;20.90;38.00;;;;;;5039316;28;20033;-85
2021/03/12 11:30:16;;;;;;;2.13;0.40;;;20.90;38.00;;;;;;5073124;28;20024;-84
2021/03/12 11:32:42;;;;;;;1.90;0.25;;;20.90;38.10;;;;;;5039019;28;20021;-84
2021/03/12 11:35:08;;;;;;;2.42;0.40;;;20.90;38.10;;;;;;5055923;28;20024;-85
2021/03/12 11:37:34;;;;;;;2.88;0.30;;;20.90;38.10;;;;;;5027022;28;20025;-84
2021/03/12 11:40:00;;;;;;;2.28;0.30;;;20.90;38.00;;;;;;5061533;28;20365;-85
2021/03/12 11:42:26;;;;;;;2.35;0.40;;;20.80;38.00;;;;;;5042611;28;20017;-85
2021/03/12 11:44:52;;;;;;;1.73;0.10;;;20.80;37.90;;;;;;5049185;28;20025;-85
2021/03/12 11:47:17;;;;;;;1.92;0.30;;;21.00;37.80;;;;;;5052576;28;20551;-85
2021/03/12 11:49:47;;;;;;;1.65;0.28;;;21.10;37.50;;;;;;5054723;28;20509;-84
2021/03/12 11:52:14;;;;;;;0.90;0.10;;;21.20;37.30;;;;;;5037447;28;20020;-85
2021/03/12 11:54:40;;;;;;;3.10;0.32;;;21.40;37.10;;;;;;5053879;28;20025;-85
2021/03/12 11:57:06;;;;;;;2.65;0.38;;;21.40;36.90;;;;;;5028072;28;20619;-85
2021/03/12 11:59:32;;;;;;;1.17;0.13;;;21.50;36.80;;;;;;5031378;28;20490;-84
2021/03/12 12:01:59;;;;;;;2.45;0.10;;;21.60;36.80;;;;;;5037740;28;20164;-85
2021/03/12 12:04:26;;;;;;;1.88;0.40;;;21.60;36.60;;;;;;5060010;28;20059;-85
2021/03/12 12:06:51;;;;;;;2.20;0.30;;;21.70;36.60;;;;;;5053620;28;20112;-84
2021/03/12 12:09:17;;;;;;;1.38;0.20;;;21.70;36.60;;;;;;5037877;28;20093;-85
2021/03/12 12:11:42;;;;;;;1.45;0.30;;;21.70;36.50;;;;;;5036409;28;20025;-84
2021/03/12 12:14:08;;;;;;;2.30;0.30;;;21.70;36.50;;;;;;5049190;28;20503;-84
2021/03/12 12:16:34;;;;;;;2.90;0.30;;;21.70;36.50;;;;;;5069981;28;20022;-84
2021/03/12 12:19:04;;;;;;;2.72;0.40;;;21.80;36.50;;;;;;5054646;28;20051;-85
2021/03/12 12:21:30;;;;;;;2.13;0.40;;;21.80;36.50;;;;;;5046709;28;20097;-85
2021/03/12 12:23:56;;;;;;;3.80;0.30;;;21.80;36.60;;;;;;5032582;28;20044;-85
2021/03/12 12:26:22;;;;;;;1.80;0.35;;;21.70;36.50;;;;;;5053684;28;20025;-85
2021/03/12 12:28:48;;;;;;;1.55;0.30;;;21.70;36.60;;;;;;5056086;28;20055;-85
2021/03/12 12:31:13;;;;;;;3.53;0.40;;;21.70;36.60;;;;;;5053436;28;20025;-85
2021/03/12 12:33:40;;;;;;;3.42;0.30;;;21.70;36.70;;;;;;5038448;28;20036;-85
2021/03/12 12:36:07;;;;;;;2.88;0.73;;;21.70;36.70;;;;;;5038038;28;20025;-85
2021/03/12 12:38:33;;;;;;;3.17;0.20;;;21.60;36.80;;;;;;5072474;28;20025;-84
2021/03/12 12:40:58;;;;;;;1.88;0.20;;;21.60;36.80;;;;;;5054933;28;20071;-85
2021/03/12 12:43:24;;;;;;;1.38;0.20;;;21.60;36.80;;;;;;5048258;28;20414;-85
2021/03/12 12:45:49;;;;;;;3.65;0.25;;;21.60;36.90;;;;;;5035087;28;20166;-85
2021/03/12 12:48:15;;;;;;;6.10;0.40;;;21.50;36.90;;;;;;5054580;28;20029;-85
2021/03/12 12:50:40;;;;;;;4.20;0.30;;;21.50;36.90;;;;;;5052420;28;20037;-85
2021/03/12 12:53:06;;;;;;;1.60;0.30;;;21.50;36.90;;;;;;5071490;28;20025;-85
2021/03/12 12:55:33;;;;;;;4.00;0.30;;;21.50;37.00;;;;;;5065732;28;20024;-85